createdAt,value
2018-03-17T00:00:15.534Z,80.00
2018-03-17T00:02:43.016Z,80.00
2018-03-17T00:05:10.474Z,79.70
2018-03-17T00:07:37.962Z,79.50
2018-03-17T00:10:06.193Z,79.10
2018-03-17T00:12:33.663Z,79.10
2018-03-17T00:15:01.120Z,79.10
2018-03-17T00:17:28.599Z,78.80
2018-03-17T00:19:56.054Z,78.60
2018-03-17T00:22:23.573Z,78.80
2018-03-17T00:24:51.035Z,79.30
2018-03-17T00:27:18.498Z,79.80
2018-03-17T00:29:45.964Z,80.10
2018-03-17T00:32:13.458Z,79.80
2018-03-17T00:34:42.034Z,79.60
2018-03-17T00:37:09.502Z,79.50
2018-03-17T00:39:37.737Z,79.60
2018-03-17T00:42:05.224Z,79.50
2018-03-17T00:44:33.807Z,79.70
2018-03-17T00:47:01.273Z,79.70
2018-03-17T00:49:29.924Z,79.70
2018-03-17T00:51:57.392Z,80.40
2018-03-17T00:54:24.851Z,79.60
2018-03-17T00:56:52.319Z,79.80
2018-03-17T00:59:22.038Z,80.40
2018-03-17T01:01:49.498Z,80.40
2018-03-17T01:04:18.136Z,80.20
2018-03-17T01:06:45.636Z,80.20
2018-03-17T01:09:13.708Z,80.40
2018-03-17T01:11:41.967Z,80.80
2018-03-17T01:14:09.439Z,80.80
2018-03-17T01:16:36.909Z,80.90
2018-03-17T01:19:04.378Z,80.90
2018-03-17T01:21:32.603Z,80.80
2018-03-17T01:24:00.075Z,80.70
2018-03-17T01:26:27.534Z,80.10
2018-03-17T01:28:54.990Z,79.80
2018-03-17T01:31:23.198Z,79.80
2018-03-17T01:33:52.903Z,79.90
2018-03-17T01:36:20.488Z,79.80
2018-03-17T01:38:48.696Z,79.80
2018-03-17T01:41:16.811Z,79.80
2018-03-17T01:43:44.282Z,80.10
2018-03-17T01:46:12.506Z,80.10
2018-03-17T01:48:39.986Z,80.10
2018-03-17T01:51:07.455Z,80.20
2018-03-17T01:53:34.911Z,79.90
2018-03-17T01:56:02.383Z,79.80
2018-03-17T01:58:30.610Z,79.30
2018-03-17T02:00:58.083Z,79.30
2018-03-17T02:03:25.551Z,79.30
2018-03-17T02:05:53.069Z,79.30
2018-03-17T02:08:20.496Z,79.40
2018-03-17T02:10:48.731Z,79.90
2018-03-17T02:13:16.189Z,79.80
2018-03-17T02:15:43.733Z,79.70
2018-03-17T02:18:11.187Z,79.80
2018-03-17T02:20:38.661Z,79.90
2018-03-17T02:23:06.118Z,80.20
2018-03-17T02:25:33.579Z,80.10
2018-03-17T02:28:01.038Z,80.00
2018-03-17T02:30:28.507Z,79.80
2018-03-17T02:32:55.963Z,79.50
2018-03-17T02:35:23.438Z,79.50
2018-03-17T02:37:50.892Z,79.60
2018-03-17T02:40:18.361Z,79.50
2018-03-17T02:42:45.825Z,79.40
2018-03-17T02:45:13.298Z,79.20
2018-03-17T02:47:41.518Z,79.10
2018-03-17T02:50:09.011Z,78.90
2018-03-17T02:52:37.409Z,78.80
2018-03-17T02:55:04.834Z,79.10
2018-03-17T02:57:32.280Z,79.60
2018-03-17T02:59:59.751Z,79.70
2018-03-17T03:02:27.207Z,79.50
2018-03-17T03:04:54.775Z,79.60
2018-03-17T03:07:22.235Z,79.70
2018-03-17T03:09:50.714Z,79.50
2018-03-17T03:12:18.175Z,79.60
2018-03-17T03:14:45.652Z,79.00
2018-03-17T03:17:13.115Z,78.60
2018-03-17T03:19:41.354Z,78.20
2018-03-17T03:22:08.815Z,78.20
2018-03-17T03:24:36.288Z,78.10
2018-03-17T03:27:03.779Z,77.90
2018-03-17T03:29:31.243Z,77.70
2018-03-17T03:31:58.820Z,77.80
2018-03-17T03:34:26.278Z,77.90
2018-03-17T03:36:53.739Z,77.80
2018-03-17T03:39:21.198Z,77.80
2018-03-17T03:41:48.666Z,77.50
2018-03-17T03:44:16.135Z,77.60
2018-03-17T03:46:44.059Z,77.60
2018-03-17T03:49:11.523Z,77.50
2018-03-17T03:51:38.983Z,77.60
2018-03-17T03:54:06.446Z,77.70
2018-03-17T03:56:33.905Z,77.60
2018-03-17T03:59:01.638Z,77.30
2018-03-17T04:01:29.875Z,77.30
2018-03-17T04:03:57.328Z,77.30
2018-03-17T04:06:24.799Z,77.30
2018-03-17T04:08:52.870Z,77.30
2018-03-17T04:11:20.438Z,77.50
2018-03-17T04:13:47.894Z,77.50
2018-03-17T04:16:15.568Z,77.50
2018-03-17T04:18:43.028Z,77.80
2018-03-17T04:21:11.874Z,78.10
2018-03-17T04:23:39.634Z,78.00
2018-03-17T04:26:07.098Z,78.00
2018-03-17T04:28:34.563Z,77.80
2018-03-17T04:31:02.036Z,77.70
2018-03-17T04:33:29.500Z,77.70
2018-03-17T04:35:56.965Z,77.60
2018-03-17T04:38:24.414Z,77.90
2018-03-17T04:40:51.884Z,78.00
2018-03-17T04:43:19.346Z,78.00
2018-03-17T04:45:46.810Z,77.60
2018-03-17T04:48:14.272Z,77.50
2018-03-17T04:50:42.516Z,77.50
2018-03-17T04:53:09.975Z,77.40
2018-03-17T04:55:37.435Z,77.70
2018-03-17T04:58:06.697Z,77.90
2018-03-17T05:00:34.150Z,77.70
2018-03-17T05:03:01.938Z,77.30
2018-03-17T05:05:29.406Z,77.50
2018-03-17T05:07:57.278Z,77.20
2018-03-17T05:10:25.369Z,78.40
2018-03-17T05:12:53.283Z,77.90
2018-03-17T05:15:20.751Z,77.70
2018-03-17T05:17:48.367Z,77.70
2018-03-17T05:20:16.636Z,78.30
2018-03-17T05:22:44.898Z,78.20
2018-03-17T05:25:13.192Z,78.40
2018-03-17T05:27:40.710Z,78.20
2018-03-17T05:30:09.685Z,77.90
2018-03-17T05:32:37.166Z,77.80
2018-03-17T05:35:04.634Z,77.60
2018-03-17T05:37:32.096Z,77.80
2018-03-17T05:39:59.549Z,77.60
2018-03-17T05:42:27.007Z,77.70
2018-03-17T05:44:54.470Z,77.60
2018-03-17T05:47:22.595Z,77.70
2018-03-17T05:49:50.842Z,77.20
2018-03-17T05:52:18.906Z,77.20
2018-03-17T05:54:46.662Z,77.30
2018-03-17T05:57:14.714Z,77.00
2018-03-17T05:59:43.136Z,76.90
2018-03-17T06:02:11.150Z,76.90
2018-03-17T06:04:38.623Z,77.00
2018-03-17T06:07:06.708Z,76.90
2018-03-17T06:09:34.190Z,76.10
2018-03-17T06:12:03.062Z,76.40
2018-03-17T06:14:30.544Z,76.10
2018-03-17T06:16:58.715Z,75.50
2018-03-17T06:19:26.643Z,75.10
2018-03-17T06:21:54.130Z,75.00
2018-03-17T06:24:21.592Z,75.40
2018-03-17T06:26:49.532Z,75.70
2018-03-17T06:29:18.855Z,75.50
2018-03-17T06:31:46.314Z,75.70
2018-03-17T06:34:14.037Z,75.70
2018-03-17T06:36:41.511Z,75.80
2018-03-17T06:39:09.627Z,75.80
2018-03-17T06:41:37.095Z,76.10
2018-03-17T06:44:06.061Z,76.60
2018-03-17T06:46:34.256Z,76.60
2018-03-17T06:49:01.706Z,76.20
2018-03-17T06:51:29.332Z,76.10
2018-03-17T06:53:57.419Z,76.40
2018-03-17T06:56:24.895Z,76.20
2018-03-17T06:58:52.351Z,75.60
2018-03-17T07:01:20.434Z,74.90
2018-03-17T07:03:47.890Z,74.90
2018-03-17T07:06:16.792Z,75.70
2018-03-17T07:08:45.031Z,75.60
2018-03-17T07:11:12.482Z,75.60
2018-03-17T07:13:39.941Z,75.70
2018-03-17T07:16:07.417Z,75.70
2018-03-17T07:18:34.896Z,75.50
2018-03-17T07:21:02.559Z,75.50
2018-03-17T07:23:30.327Z,75.30
2018-03-17T07:25:57.890Z,75.00
2018-03-17T07:28:25.353Z,74.40
2018-03-17T07:30:52.819Z,73.80
2018-03-17T07:33:21.370Z,72.10
2018-03-17T07:35:49.491Z,72.00
2018-03-17T07:38:17.728Z,70.50
2018-03-17T07:40:45.972Z,73.20
2018-03-17T07:43:13.452Z,73.20
2018-03-17T07:45:41.583Z,71.00
2018-03-17T07:48:09.262Z,70.40
2018-03-17T07:50:36.734Z,70.40
2018-03-17T07:53:04.212Z,73.00
2018-03-17T07:55:31.715Z,68.20
2018-03-17T07:57:59.966Z,66.90
2018-03-17T08:00:27.442Z,67.30
2018-03-17T08:02:55.671Z,66.50
2018-03-17T08:05:23.210Z,66.40
2018-03-17T08:07:51.141Z,65.70
2018-03-17T08:10:19.374Z,68.90
2018-03-17T08:12:46.855Z,69.10
2018-03-17T08:15:15.091Z,66.60
2018-03-17T08:17:42.583Z,66.40
2018-03-17T08:20:10.047Z,65.70
2018-03-17T08:22:38.040Z,64.10
2018-03-17T08:25:06.275Z,64.70
2018-03-17T08:27:33.762Z,64.70
2018-03-17T08:30:01.315Z,65.70
2018-03-17T08:32:28.783Z,65.30
2018-03-17T08:34:56.907Z,65.60
2018-03-17T08:37:24.382Z,67.10
2018-03-17T08:39:52.018Z,68.20
2018-03-17T08:42:19.923Z,68.60
2018-03-17T08:44:47.404Z,69.00
2018-03-17T08:47:15.304Z,68.50
2018-03-17T08:49:42.818Z,68.90
2018-03-17T08:52:10.392Z,69.10
2018-03-17T08:54:37.879Z,69.90
2018-03-17T08:57:05.341Z,71.30
2018-03-17T08:59:32.803Z,72.00
2018-03-17T09:02:00.831Z,72.90
2018-03-17T09:04:28.488Z,74.00
2018-03-17T09:06:55.960Z,74.40
2018-03-17T09:09:23.414Z,74.40
2018-03-17T09:11:50.898Z,74.20
2018-03-17T09:14:19.660Z,74.20
2018-03-17T09:16:47.214Z,74.20
2018-03-17T09:19:14.683Z,74.70
2018-03-17T09:21:42.146Z,74.60
2018-03-17T09:24:11.171Z,76.20
2018-03-17T09:26:38.645Z,75.50
2018-03-17T09:29:06.112Z,76.00
2018-03-17T09:31:34.680Z,76.20
2018-03-17T09:34:02.606Z,76.40
2018-03-17T09:36:30.261Z,76.30
2018-03-17T09:38:58.738Z,75.80
2018-03-17T09:41:26.336Z,75.90
2018-03-17T09:43:53.805Z,75.40
2018-03-17T09:46:23.809Z,75.50
2018-03-17T09:48:52.687Z,75.90
2018-03-17T09:51:20.918Z,76.10
2018-03-17T09:53:48.381Z,75.90
2018-03-17T09:56:15.847Z,76.00
2018-03-17T09:58:43.683Z,76.50
2018-03-17T10:01:11.187Z,77.20
2018-03-17T10:03:38.743Z,76.90
2018-03-17T10:06:06.223Z,76.70
2018-03-17T10:08:34.458Z,76.80
2018-03-17T10:11:01.942Z,76.80
2018-03-17T10:13:29.512Z,77.20
2018-03-17T10:15:56.991Z,78.10
2018-03-17T10:18:24.797Z,78.50
2018-03-17T10:20:52.286Z,79.10
2018-03-17T10:23:19.798Z,78.50
2018-03-17T10:25:47.604Z,79.10
2018-03-17T10:28:15.063Z,78.60
2018-03-17T10:30:42.544Z,78.40
2018-03-17T10:33:10.014Z,78.00
2018-03-17T10:35:38.250Z,78.40
2018-03-17T10:38:05.702Z,78.40
2018-03-17T10:40:33.202Z,78.50
2018-03-17T10:43:01.487Z,78.90
2018-03-17T10:45:28.954Z,78.90
2018-03-17T10:47:57.171Z,78.50
2018-03-17T10:50:24.744Z,78.30
2018-03-17T10:52:52.976Z,77.60
2018-03-17T10:55:20.446Z,77.60
2018-03-17T10:57:47.948Z,76.90
2018-03-17T11:00:22.054Z,77.00
2018-03-17T11:02:52.527Z,77.00
2018-03-17T11:05:20.006Z,77.10
2018-03-17T11:07:47.474Z,76.70
2018-03-17T11:10:15.883Z,77.00
2018-03-17T11:12:43.444Z,77.10
2018-03-17T11:15:10.902Z,78.00
2018-03-17T11:17:38.675Z,79.10
2018-03-17T11:20:06.145Z,79.80
2018-03-17T11:22:34.379Z,81.10
2018-03-17T11:25:02.458Z,81.00
2018-03-17T11:27:29.933Z,81.90
2018-03-17T11:29:57.959Z,82.10
2018-03-17T11:32:25.425Z,82.30
2018-03-17T11:34:53.118Z,82.40
2018-03-17T11:37:20.580Z,82.50
2018-03-17T11:39:48.336Z,82.40
2018-03-17T11:42:17.208Z,83.00
2018-03-17T11:44:45.175Z,83.20
2018-03-17T11:47:12.622Z,83.60
2018-03-17T11:49:40.121Z,83.90
2018-03-17T11:52:08.356Z,83.90
2018-03-17T11:54:35.881Z,83.80
2018-03-17T11:57:04.114Z,84.70
2018-03-17T11:59:31.593Z,84.70
2018-03-17T12:01:59.055Z,84.70
2018-03-17T12:04:26.929Z,85.30
2018-03-17T12:06:56.078Z,85.20
2018-03-17T12:09:25.113Z,85.20
2018-03-17T12:11:52.658Z,85.40
2018-03-17T12:14:21.627Z,85.90
2018-03-17T12:16:49.907Z,85.30
2018-03-17T12:19:17.746Z,85.80
2018-03-17T12:21:45.699Z,85.00
2018-03-17T12:24:13.934Z,84.70
2018-03-17T12:26:42.131Z,84.70
2018-03-17T12:29:11.115Z,83.40
2018-03-17T12:31:38.580Z,83.40
2018-03-17T12:34:06.855Z,81.60
2018-03-17T12:36:35.076Z,81.00
2018-03-17T12:39:02.631Z,80.90
2018-03-17T12:41:30.094Z,79.60
2018-03-17T12:43:57.727Z,79.70
2018-03-17T12:46:25.999Z,79.70
2018-03-17T12:48:53.470Z,79.60
2018-03-17T12:51:21.798Z,80.50
2018-03-17T12:53:49.289Z,80.50
2018-03-17T12:56:17.338Z,80.20
2018-03-17T12:58:44.809Z,82.20
2018-03-17T13:01:12.272Z,82.00
2018-03-17T13:03:40.751Z,81.10
2018-03-17T13:06:08.211Z,81.10
2018-03-17T13:08:35.770Z,82.40
2018-03-17T13:11:04.819Z,81.80
2018-03-17T13:13:32.937Z,81.10
2018-03-17T13:16:00.416Z,81.60
2018-03-17T13:18:30.155Z,80.00
2018-03-17T13:20:57.627Z,80.00
2018-03-17T13:23:25.096Z,80.30
2018-03-17T13:25:53.167Z,81.20
2018-03-17T13:28:27.157Z,79.80
2018-03-17T13:30:54.614Z,80.70
2018-03-17T13:33:22.140Z,81.70
2018-03-17T13:36:01.779Z,82.60
2018-03-17T13:38:29.252Z,83.50
2018-03-17T13:40:57.491Z,82.90
2018-03-17T13:43:25.891Z,82.80
2018-03-17T13:45:53.359Z,82.60
2018-03-17T13:48:21.607Z,83.20
2018-03-17T13:50:49.199Z,83.10
2018-03-17T13:53:17.465Z,82.60
2018-03-17T13:55:46.783Z,82.00
2018-03-17T13:58:15.020Z,81.20
2018-03-17T14:00:42.498Z,81.20
2018-03-17T14:03:10.059Z,80.60
2018-03-17T14:05:37.531Z,81.10
2018-03-17T14:08:05.790Z,80.10
2018-03-17T14:10:34.647Z,80.50
2018-03-17T14:13:02.122Z,80.50
2018-03-17T14:15:30.101Z,79.60
2018-03-17T14:17:57.731Z,79.90
2018-03-17T14:20:25.621Z,78.90
2018-03-17T14:22:53.201Z,79.20
2018-03-17T14:25:20.771Z,79.00
2018-03-17T14:27:48.248Z,78.60
2018-03-17T14:30:15.722Z,79.10
2018-03-17T14:32:43.977Z,78.40
2018-03-17T14:35:12.233Z,78.00
2018-03-17T14:37:39.709Z,78.00
2018-03-17T14:40:07.939Z,77.50
2018-03-17T14:42:36.343Z,77.60
2018-03-17T14:45:04.590Z,78.20
2018-03-17T14:47:32.066Z,77.30
2018-03-17T14:50:00.049Z,77.00
2018-03-17T14:52:27.624Z,76.90
2018-03-17T14:54:55.044Z,77.00
2018-03-17T14:57:22.515Z,77.10
2018-03-17T14:59:50.927Z,77.00
2018-03-17T15:02:19.171Z,78.00
2018-03-17T15:04:46.638Z,78.10
2018-03-17T15:07:14.116Z,77.00
2018-03-17T15:09:41.587Z,76.40
2018-03-17T15:12:09.126Z,76.40
2018-03-17T15:14:37.406Z,76.20
2018-03-17T15:17:05.983Z,75.70
2018-03-17T15:19:33.443Z,75.60
2018-03-17T15:22:01.678Z,75.30
2018-03-17T15:24:29.143Z,75.20
2018-03-17T15:26:56.610Z,74.80
2018-03-17T15:29:25.518Z,75.30
2018-03-17T15:31:53.902Z,74.50
2018-03-17T15:34:22.146Z,73.90
2018-03-17T15:36:49.943Z,73.80
2018-03-17T15:39:18.536Z,73.80
2018-03-17T15:41:45.963Z,73.80
2018-03-17T15:44:13.423Z,73.90
2018-03-17T15:46:40.890Z,74.10
2018-03-17T15:49:08.350Z,73.90
2018-03-17T15:51:36.607Z,73.20
2018-03-17T15:54:04.671Z,73.20
2018-03-17T15:56:33.604Z,72.60
2018-03-17T15:59:01.066Z,72.70
2018-03-17T16:01:28.556Z,73.70
2018-03-17T16:03:56.020Z,73.70
2018-03-17T16:06:23.495Z,73.10
2018-03-17T16:08:51.205Z,73.30
2018-03-17T16:11:19.452Z,73.20
2018-03-17T16:13:46.910Z,72.90
2018-03-17T16:16:15.208Z,73.00
2018-03-17T16:18:43.447Z,73.00
2018-03-17T16:21:11.560Z,73.00
2018-03-17T16:23:40.399Z,74.30
2018-03-17T16:26:07.914Z,74.20
2018-03-17T16:28:36.685Z,73.90
2018-03-17T16:31:04.259Z,73.20
2018-03-17T16:33:32.327Z,73.20
2018-03-17T16:36:00.626Z,73.00
2018-03-17T16:38:29.029Z,71.30
2018-03-17T16:40:56.568Z,71.20
2018-03-17T16:43:24.235Z,71.50
2018-03-17T16:45:51.780Z,72.50
2018-03-17T16:48:20.017Z,73.90
2018-03-17T16:50:48.180Z,73.20
2018-03-17T16:53:16.473Z,73.20
2018-03-17T16:55:43.944Z,73.50
2018-03-17T16:58:11.411Z,73.50
2018-03-17T17:00:38.977Z,73.60
2018-03-17T17:03:07.211Z,74.10
2018-03-17T17:05:34.682Z,73.80
2018-03-17T17:08:02.996Z,73.90
2018-03-17T17:10:30.548Z,74.00
2018-03-17T17:12:58.010Z,74.00
2018-03-17T17:15:26.694Z,73.90
2018-03-17T17:17:55.326Z,73.90
2018-03-17T17:20:23.151Z,73.90
2018-03-17T17:22:50.641Z,73.90
2018-03-17T17:25:18.131Z,73.40
2018-03-17T17:27:45.601Z,73.50
2018-03-17T17:30:13.110Z,73.90
2018-03-17T17:32:40.776Z,74.60
2018-03-17T17:35:09.041Z,74.20
2018-03-17T17:37:37.925Z,74.20
2018-03-17T17:40:05.383Z,74.20
2018-03-17T17:42:33.664Z,73.90
2018-03-17T17:45:01.941Z,74.00
2018-03-17T17:47:30.808Z,74.10
2018-03-17T17:49:59.030Z,74.10
2018-03-17T17:52:26.836Z,74.20
2018-03-17T17:54:54.937Z,74.30
2018-03-17T17:57:23.230Z,74.30
2018-03-17T17:59:51.484Z,74.70
2018-03-17T18:02:18.993Z,74.70
2018-03-17T18:04:46.715Z,75.00
2018-03-17T18:07:14.979Z,75.50
2018-03-17T18:09:42.468Z,75.50
2018-03-17T18:12:10.700Z,76.50
2018-03-17T18:14:38.203Z,76.50
2018-03-17T18:17:06.429Z,76.70
2018-03-17T18:19:33.912Z,76.70
2018-03-17T18:22:03.052Z,75.70
2018-03-17T18:24:30.558Z,75.60
2018-03-17T18:26:58.835Z,75.30
2018-03-17T18:29:26.313Z,74.90
2018-03-17T18:31:54.663Z,75.10
2018-03-17T18:34:22.894Z,74.90
2018-03-17T18:36:51.803Z,75.60
2018-03-17T18:39:20.096Z,76.20
2018-03-17T18:41:47.648Z,76.40
2018-03-17T18:44:15.822Z,76.50
2018-03-17T18:46:43.727Z,74.70
2018-03-17T18:49:12.234Z,75.50
2018-03-17T18:51:40.838Z,75.10
2018-03-17T18:54:08.681Z,75.00
2018-03-17T18:56:36.934Z,75.10
2018-03-17T18:59:04.939Z,75.00
2018-03-17T19:01:33.394Z,75.90
2018-03-17T19:04:01.619Z,76.80
2018-03-17T19:06:29.084Z,76.10
2018-03-17T19:08:58.490Z,76.30
2018-03-17T19:11:26.812Z,76.90
2018-03-17T19:13:55.874Z,76.90
2018-03-17T19:16:23.351Z,76.90
2018-03-17T19:18:50.818Z,76.70
2018-03-17T19:21:18.284Z,76.90
2018-03-17T19:23:45.762Z,76.40
2018-03-17T19:26:14.024Z,76.00
2018-03-17T19:28:41.497Z,76.00
2018-03-17T19:34:27.990Z,75.50
2018-03-17T19:36:55.763Z,75.70
2018-03-17T19:39:23.227Z,75.80
2018-03-17T19:41:50.758Z,77.10
2018-03-17T19:44:18.333Z,76.70
2018-03-17T19:46:46.499Z,75.70
2018-03-17T19:49:14.014Z,75.60
2018-03-17T19:51:41.494Z,75.90
2018-03-17T19:54:08.974Z,76.00
2018-03-17T19:56:36.439Z,76.10
2018-03-17T19:59:04.475Z,75.50
2018-03-17T20:01:32.764Z,75.70
2018-03-17T20:04:00.257Z,75.40
2018-03-17T20:06:27.906Z,75.80
2018-03-17T20:08:55.378Z,76.50
2018-03-17T20:11:22.868Z,76.20
2018-03-17T20:13:51.630Z,76.10
2018-03-17T20:16:19.124Z,76.00
2018-03-17T20:18:46.609Z,75.60
2018-03-17T20:21:14.159Z,76.20
2018-03-17T20:23:41.760Z,76.50
2018-03-17T20:26:09.668Z,76.90
2018-03-17T20:28:37.293Z,76.90
2018-03-17T20:31:04.763Z,77.10
2018-03-17T20:33:32.223Z,77.20
2018-03-17T20:36:00.133Z,77.10
2018-03-17T20:38:27.880Z,77.00
2018-03-17T20:40:55.358Z,77.30
2018-03-17T20:43:22.810Z,77.30
2018-03-17T20:45:50.324Z,77.60
2018-03-17T20:48:17.829Z,77.80
2018-03-17T20:50:45.325Z,77.90
2018-03-17T20:53:12.798Z,77.50
2018-03-17T20:55:40.310Z,77.10
2018-03-17T20:58:07.873Z,76.40
2018-03-17T21:00:35.436Z,76.10
2018-03-17T21:03:02.925Z,77.00
2018-03-17T21:05:30.435Z,76.40
2018-03-17T21:07:57.915Z,76.20
2018-03-17T21:10:25.393Z,76.50
2018-03-17T21:12:52.872Z,76.40
2018-03-17T21:15:20.334Z,76.40
2018-03-17T21:17:47.803Z,77.10
2018-03-17T21:20:16.029Z,77.40
2018-03-17T21:22:43.575Z,77.40
2018-03-17T21:25:11.040Z,77.20
2018-03-17T21:27:38.523Z,76.80
2018-03-17T21:30:05.993Z,76.80
2018-03-17T21:32:33.499Z,76.20
2018-03-17T21:35:01.113Z,75.90
2018-03-17T21:37:28.558Z,75.50
2018-03-17T21:39:56.798Z,75.50
2018-03-17T21:42:24.307Z,75.50
2018-03-17T21:44:52.064Z,75.80
2018-03-17T21:47:19.561Z,76.10
2018-03-17T21:49:47.794Z,76.00
2018-03-17T21:52:15.488Z,76.00
2018-03-17T21:54:42.969Z,76.10
2018-03-17T21:57:11.203Z,76.30
2018-03-17T21:59:38.919Z,76.30
2018-03-17T22:02:06.428Z,76.70
2018-03-17T22:04:33.900Z,76.80
2018-03-17T22:07:02.349Z,76.50
2018-03-17T22:09:29.829Z,77.20
2018-03-17T22:11:57.390Z,77.50
2018-03-17T22:14:24.881Z,78.20
2018-03-17T22:16:53.140Z,77.00
2018-03-17T22:19:21.397Z,77.50
2018-03-17T22:21:49.816Z,77.60
2018-03-17T22:24:17.519Z,78.20
2018-03-17T22:26:45.027Z,78.20
2018-03-17T22:29:13.264Z,77.80
2018-03-17T22:31:40.747Z,77.80
2018-03-17T22:34:08.221Z,77.80
2018-03-17T22:36:36.472Z,78.20
2018-03-17T22:39:03.955Z,77.40
2018-03-17T22:41:32.202Z,76.70
2018-03-17T22:43:59.685Z,76.70
2018-03-17T22:46:27.147Z,76.60
2018-03-17T22:48:55.380Z,75.60
2018-03-17T22:51:23.248Z,75.60
2018-03-17T22:53:50.719Z,75.80
2018-03-17T22:56:18.185Z,74.90
2018-03-17T22:58:45.655Z,74.50
2018-03-17T23:01:13.116Z,74.40
2018-03-17T23:03:40.596Z,74.90
2018-03-17T23:06:08.067Z,75.00
2018-03-17T23:08:35.536Z,74.60
2018-03-17T23:11:02.996Z,74.50
2018-03-17T23:13:30.469Z,74.50
2018-03-17T23:15:57.927Z,74.10
2018-03-17T23:18:25.404Z,74.10
2018-03-17T23:20:52.880Z,74.20
2018-03-17T23:23:20.348Z,74.00
2018-03-17T23:25:48.584Z,73.50
2018-03-17T23:28:16.055Z,73.40
2018-03-17T23:30:43.532Z,73.40
2018-03-17T23:33:11.015Z,73.90
2018-03-17T23:35:38.478Z,73.50
2018-03-17T23:38:05.956Z,73.80
2018-03-17T23:40:33.425Z,73.60
2018-03-17T23:43:00.932Z,73.10
2018-03-17T23:45:29.163Z,72.70
2018-03-17T23:47:57.411Z,72.60
2018-03-17T23:50:24.875Z,72.60
2018-03-17T23:52:52.342Z,73.10
2018-03-17T23:55:19.823Z,73.40
2018-03-17T23:57:47.286Z,73.00
